Time;durP1;ratioP1;P1;durP2;ratioP2;P2;SDS_P1;SDS_P2;PMS_P1;PMS_P2;Temp;Humidity;BMP_temperature;BMP_pressure;BME280_temperature;BME280_humidity;BME280_pressure;Samples;Min_cycle;Max_cycle;Signal;HPM_P1;HPM_P2
2022/05/15 00:00:37;;;;;;;;;;;;;;;19.24;58.21;101889.13;1026175;28;642;-62
2022/05/15 00:01:28;;;;;;;;;;;;;;;19.22;58.83;101886.56;1025138;29;678;-62
2022/05/15 00:02:18;;;;;;;;;;;;;;;19.21;59.15;101878.56;1025643;29;675;-62
2022/05/15 00:03:08;;;;;;;;;;;;;;;19.21;58.28;101884.84;1026326;28;1774;-62
2022/05/15 00:03:59;;;;;;;;;;;;;;;19.22;58.28;101885.69;1029653;28;627;-61
2022/05/15 00:04:49;;;;;;;;;;;;;;;19.20;58.73;101882.25;1026343;28;669;-63
2022/05/15 00:05:40;;;;;;;;;;;;;;;19.20;58.82;101893.06;1025852;28;603;-62
2022/05/15 00:06:30;;;;;;;;;;;;;;;19.20;59.00;101884.97;1025610;29;699;-62
2022/05/15 00:07:21;;;;;;;;;;;;;;;19.19;58.22;101885.94;1025530;29;623;-63
2022/05/15 00:08:11;;;;;;;;;;;;;;;19.19;58.67;101889.50;1027095;28;1667;-62
2022/05/15 00:09:01;;;;;;;;;;;;;;;19.18;58.20;101881.53;1029654;28;599;-62
2022/05/15 00:09:52;;;;;;;;;;;;;;;19.17;58.41;101877.97;1029680;28;1678;-63
2022/05/15 00:10:44;;;;;;;;;;;;;;;19.16;58.27;101879.00;1029339;28;642;-63
2022/05/15 00:11:34;;;;;;;;;;;;;;;19.16;57.83;101880.84;1029641;28;709;-63
2022/05/15 00:12:25;;;;;;;;;;;;;;;19.16;58.16;101881.69;1029585;28;611;-62
2022/05/15 00:13:15;;;;;;;;;;;;;;;19.15;58.41;101879.13;1029573;28;695;-63
2022/05/15 00:14:05;;;;;;;;;;;;;;;19.14;58.56;101877.41;1029575;28;632;-61
2022/05/15 00:14:56;;;;;;;;;;;;;;;19.14;58.66;101880.97;1029178;28;1726;-62
2022/05/15 00:15:46;;;;;;;;;;;;;;;19.14;58.09;101883.66;1029053;28;714;-61
2022/05/15 00:16:37;;;;;;;;;;;;;;;19.12;58.31;101885.63;1028960;28;639;-61
2022/05/15 00:17:27;;;;;;;;;;;;;;;19.12;57.85;101877.53;1029071;28;647;-61
2022/05/15 00:18:18;;;;;;;;;;;;;;;19.13;58.27;101892.75;1029846;28;1894;-61
2022/05/15 00:19:09;;;;;;;;;;;;;;;19.13;58.06;101884.66;1029256;28;651;-61
2022/05/15 00:19:59;;;;;;;;;;;;;;;19.11;58.06;101883.91;1029290;28;1710;-63
2022/05/15 00:20:50;;;;;;;;;;;;;;;19.12;58.57;101884.78;1029054;28;600;-63
2022/05/15 00:21:40;;;;;;;;;;;;;;;19.11;58.18;101878.50;1029379;28;1136;-60
2022/05/15 00:22:31;;;;;;;;;;;;;;;19.10;58.78;101875.94;1029834;28;709;-63
2022/05/15 00:23:21;;;;;;;;;;;;;;;19.10;58.24;101876.78;1029334;28;717;-62
2022/05/15 00:24:11;;;;;;;;;;;;;;;19.08;58.34;101871.50;1029527;28;721;-62
2022/05/15 00:25:02;;;;;;;;;;;;;;;19.09;58.56;101869.69;1029538;28;694;-63
2022/05/15 00:25:52;;;;;;;;;;;;;;;19.06;58.38;101865.38;1029549;28;667;-63
2022/05/15 00:26:43;;;;;;;;;;;;;;;19.08;58.36;101871.50;1029510;28;651;-62
2022/05/15 00:27:33;;;;;;;;;;;;;;;19.07;57.84;101867.09;1029550;28;686;-62
2022/05/15 00:28:24;;;;;;;;;;;;;;;19.07;58.65;101874.34;1028715;28;1482;-62
2022/05/15 00:29:15;;;;;;;;;;;;;;;19.06;58.48;101872.63;1029378;28;1710;-62
2022/05/15 00:30:06;;;;;;;;;;;;;;;19.05;57.72;101874.47;1025052;29;623;-62
2022/05/15 00:30:56;;;;;;;;;;;;;;;19.05;58.94;101871.78;1029973;28;1617;-62
2022/05/15 00:31:47;;;;;;;;;;;;;;;19.05;58.56;101871.78;1028948;28;678;-63
2022/05/15 00:32:37;;;;;;;;;;;;;;;19.06;58.04;101875.34;1028883;28;686;-62
2022/05/15 00:33:28;;;;;;;;;;;;;;;19.05;58.46;101869.06;1029521;28;667;-62
2022/05/15 00:34:18;;;;;;;;;;;;;;;19.05;57.78;101868.22;1029043;28;729;-63
2022/05/15 00:35:09;;;;;;;;;;;;;;;19.05;58.34;101863.66;1029345;28;1595;-62
2022/05/15 00:35:59;;;;;;;;;;;;;;;19.04;58.41;101863.78;1029783;28;627;-62
2022/05/15 00:36:49;;;;;;;;;;;;;;;19.04;58.58;101863.78;1029111;28;694;-62
2022/05/15 00:37:40;;;;;;;;;;;;;;;19.04;58.89;101870.06;1028936;28;686;-61
2022/05/15 00:38:30;;;;;;;;;;;;;;;19.03;58.14;101867.47;1028819;28;1970;-62
2022/05/15 00:39:21;;;;;;;;;;;;;;;19.02;58.63;101863.06;1029439;28;725;-62
2022/05/15 00:40:11;;;;;;;;;;;;;;;19.02;58.71;101863.06;1029320;28;1742;-61
2022/05/15 00:41:01;;;;;;;;;;;;;;;19.02;58.72;101865.75;1028996;28;643;-62
2022/05/15 00:41:52;;;;;;;;;;;;;;;19.02;58.52;101869.31;1029565;28;658;-63
2022/05/15 00:42:42;;;;;;;;;;;;;;;19.01;58.36;101867.59;1029365;28;639;-62
2022/05/15 00:43:33;;;;;;;;;;;;;;;19.02;58.05;101857.66;1028857;28;643;-63
2022/05/15 00:44:23;;;;;;;;;;;;;;;19.01;58.07;101859.50;1029530;28;647;-61
2022/05/15 00:45:14;;;;;;;;;;;;;;;19.02;57.80;101866.63;1029332;28;793;-61
2022/05/15 00:46:04;;;;;;;;;;;;;;;19.00;58.30;101865.88;1028999;28;607;-61
2022/05/15 00:46:54;;;;;;;;;;;;;;;19.00;58.04;101855.09;1029374;28;725;-61
2022/05/15 00:47:45;;;;;;;;;;;;;;;19.00;58.24;101865.88;1029364;28;699;-61
2022/05/15 00:48:35;;;;;;;;;;;;;;;18.99;58.43;101864.16;1029489;28;643;-62
2022/05/15 00:49:26;;;;;;;;;;;;;;;18.99;57.92;101860.63;1028784;28;650;-62
2022/05/15 00:50:16;;;;;;;;;;;;;;;18.99;57.85;101864.16;1029421;28;624;-61
2022/05/15 00:51:06;;;;;;;;;;;;;;;19.00;58.59;101865.03;1027084;28;1556;-63
2022/05/15 00:51:57;;;;;;;;;;;;;;;18.98;58.35;101858.94;1029423;28;683;-62
2022/05/15 00:52:48;;;;;;;;;;;;;;;18.97;57.56;101862.63;1028954;28;643;-59
2022/05/15 00:53:38;;;;;;;;;;;;;;;18.97;57.83;101868.88;1029503;28;658;-60
2022/05/15 00:54:29;;;;;;;;;;;;;;;18.97;57.45;101855.38;1029430;28;651;-60
2022/05/15 00:55:19;;;;;;;;;;;;;;;18.97;58.42;101854.50;1028820;28;686;-62
2022/05/15 00:56:09;;;;;;;;;;;;;;;18.96;58.05;101859.06;1028969;28;660;-61
2022/05/15 00:57:00;;;;;;;;;;;;;;;18.96;58.67;101853.66;1029693;28;639;-61
2022/05/15 00:57:50;;;;;;;;;;;;;;;18.95;58.00;101857.34;1029191;28;662;-61
2022/05/15 00:58:41;;;;;;;;;;;;;;;18.94;58.30;101861.03;1028301;28;1949;-61
2022/05/15 00:59:31;;;;;;;;;;;;;;;18.95;57.86;101862.75;1028701;28;1200;-62
2022/05/15 01:00:22;;;;;;;;;;;;;;;18.95;57.69;101860.03;1027719;28;1673;-61
2022/05/15 01:01:12;;;;;;;;;;;;;;;18.95;58.51;101857.34;1029661;28;670;-60
2022/05/15 01:02:03;;;;;;;;;;;;;;;18.95;58.23;101854.63;1029140;28;729;-60
2022/05/15 01:02:53;;;;;;;;;;;;;;;18.95;58.49;101859.19;1029406;28;666;-61
2022/05/15 01:03:44;;;;;;;;;;;;;;;18.95;58.15;101862.75;1029294;28;605;-60
2022/05/15 01:04:34;;;;;;;;;;;;;;;18.94;58.24;101860.16;1029042;28;1750;-61
2022/05/15 01:05:24;;;;;;;;;;;;;;;18.94;58.09;101855.63;1029000;28;1667;-60
2022/05/15 01:06:15;;;;;;;;;;;;;;;18.93;58.42;101859.31;1027959;28;1667;-61
2022/05/15 01:07:05;;;;;;;;;;;;;;;18.92;57.70;101863.00;1024449;29;643;-61
2022/05/15 01:07:56;;;;;;;;;;;;;;;18.93;58.11;101859.31;1024718;29;636;-61
2022/05/15 01:08:46;;;;;;;;;;;;;;;18.90;58.51;101864.09;1024856;29;610;-60
2022/05/15 01:09:37;;;;;;;;;;;;;;;18.90;57.31;101854.16;1024698;29;686;-60
2022/05/15 01:10:27;;;;;;;;;;;;;;;18.89;58.72;101860.53;1024745;29;635;-60
2022/05/15 01:11:18;;;;;;;;;;;;;;;18.89;57.78;101863.25;1024893;29;619;-61
2022/05/15 01:12:08;;;;;;;;;;;;;;;18.88;57.76;101864.22;1025406;29;622;-62
2022/05/15 01:12:59;;;;;;;;;;;;;;;18.89;58.19;101865.94;1027461;28;1699;-62
2022/05/15 01:13:49;;;;;;;;;;;;;;;18.89;58.39;101868.66;1028703;28;680;-61
2022/05/15 01:14:40;;;;;;;;;;;;;;;18.89;57.57;101854.28;1027953;28;1679;-61
2022/05/15 01:15:30;;;;;;;;;;;;;;;18.90;57.76;101859.56;1029351;28;694;-60
2022/05/15 01:16:20;;;;;;;;;;;;;;;18.89;58.53;101860.53;1029319;28;638;-62
2022/05/15 01:17:11;;;;;;;;;;;;;;;18.90;57.93;101858.69;1029284;28;670;-61
2022/05/15 01:18:02;;;;;;;;;;;;;;;18.89;58.07;101857.84;1029110;28;1679;-62
2022/05/15 01:18:52;;;;;;;;;;;;;;;18.88;58.59;101856.13;1029297;28;573;-61
2022/05/15 01:19:43;;;;;;;;;;;;;;;18.87;58.07;101859.81;1029304;28;654;-62
2022/05/15 01:20:34;;;;;;;;;;;;;;;18.87;57.34;101861.66;1028439;28;1468;-61
2022/05/15 01:21:24;;;;;;;;;;;;;;;18.88;57.99;101860.66;1027405;28;1513;-62
2022/05/15 01:22:15;;;;;;;;;;;;;;;18.87;58.44;101859.81;1029208;28;645;-62
2022/05/15 01:23:05;;;;;;;;;;;;;;;18.87;57.92;101864.34;1029297;28;705;-61
2022/05/15 01:23:56;;;;;;;;;;;;;;;18.86;58.22;101855.38;1028698;28;726;-61
2022/05/15 01:24:47;;;;;;;;;;;;;;;18.85;58.03;101859.06;1029389;28;1492;-62
2022/05/15 01:25:38;;;;;;;;;;;;;;;18.87;57.70;101856.25;1025558;28;639;-62
2022/05/15 01:26:28;;;;;;;;;;;;;;;18.87;57.84;101859.81;1024836;29;1738;-62
2022/05/15 01:27:18;;;;;;;;;;;;;;;18.86;58.11;101858.09;1028307;28;706;-62
2022/05/15 01:28:09;;;;;;;;;;;;;;;18.87;57.70;101858.94;1028843;28;631;-62
2022/05/15 01:28:59;;;;;;;;;;;;;;;18.86;58.34;101858.09;1029238;28;583;-63
2022/05/15 01:29:50;;;;;;;;;;;;;;;18.86;57.96;101858.09;1029268;28;721;-63
2022/05/15 01:30:41;;;;;;;;;;;;;;;18.87;58.09;101859.81;1029215;28;627;-62
2022/05/15 01:31:31;;;;;;;;;;;;;;;18.85;58.24;101856.38;1029007;28;1761;-62
2022/05/15 01:32:22;;;;;;;;;;;;;;;18.85;57.97;101856.38;1029169;28;659;-62
2022/05/15 01:33:12;;;;;;;;;;;;;;;18.85;57.24;101856.38;1029208;28;1539;-62
2022/05/15 01:34:05;;;;;;;;;;;;;;;18.85;58.07;101861.78;1028642;28;725;-62
2022/05/15 01:34:55;;;;;;;;;;;;;;;18.86;58.40;101857.22;1029158;28;769;-62
2022/05/15 01:35:45;;;;;;;;;;;;;;;18.85;57.65;101861.78;1029327;28;710;-62
2022/05/15 01:36:36;;;;;;;;;;;;;;;18.85;57.99;101859.06;1028662;28;655;-62
2022/05/15 01:37:26;;;;;;;;;;;;;;;18.83;57.19;101855.66;1029042;28;1671;-61
2022/05/15 01:38:18;;;;;;;;;;;;;;;18.82;58.37;101856.63;1029378;28;1922;-62
2022/05/15 01:39:09;;;;;;;;;;;;;;;18.82;57.72;101862.03;1028944;28;621;-62
2022/05/15 01:39:59;;;;;;;;;;;;;;;18.81;57.65;101854.91;1028719;28;643;-62
2022/05/15 01:40:49;;;;;;;;;;;;;;;18.81;58.42;101859.50;1029222;28;654;-62
2022/05/15 01:41:40;;;;;;;;;;;;;;;18.81;58.35;101859.50;1029267;28;647;-62
2022/05/15 01:42:30;;;;;;;;;;;;;;;18.80;57.58;101857.78;1029216;28;722;-62
2022/05/15 01:43:21;;;;;;;;;;;;;;;18.80;57.96;101858.63;1029035;28;1675;-62
2022/05/15 01:44:11;;;;;;;;;;;;;;;18.80;58.11;101857.78;1028692;28;650;-62
2022/05/15 01:45:01;;;;;;;;;;;;;;;18.80;57.43;101858.63;1028866;28;1750;-62
2022/05/15 01:45:52;;;;;;;;;;;;;;;18.79;57.65;101864.16;1029149;28;674;-62
2022/05/15 01:46:42;;;;;;;;;;;;;;;18.80;57.70;101857.78;1028683;28;738;-62
2022/05/15 01:47:33;;;;;;;;;;;;;;;18.78;57.95;101852.50;1028530;28;657;-62
2022/05/15 01:48:23;;;;;;;;;;;;;;;18.79;57.54;101850.66;1029019;28;1695;-62
2022/05/15 01:49:14;;;;;;;;;;;;;;;18.77;57.39;101853.47;1029262;28;665;-62
2022/05/15 01:50:04;;;;;;;;;;;;;;;18.76;58.10;101854.47;1028693;28;619;-62
2022/05/15 01:50:54;;;;;;;;;;;;;;;18.76;58.25;101850.91;1028685;28;1249;-62
2022/05/15 01:51:45;;;;;;;;;;;;;;;18.76;57.73;101851.75;1030299;28;642;-62
2022/05/15 01:52:35;;;;;;;;;;;;;;;18.75;57.46;101847.34;1030310;28;700;-61
2022/05/15 01:53:26;;;;;;;;;;;;;;;18.75;57.55;101844.66;1028461;28;1743;-61
2022/05/15 01:54:16;;;;;;;;;;;;;;;18.75;58.50;101844.66;1029181;28;678;-63
2022/05/15 01:55:07;;;;;;;;;;;;;;;18.74;57.68;101853.72;1028465;28;1619;-62
2022/05/15 01:55:57;;;;;;;;;;;;;;;18.73;57.64;101850.16;1029111;28;619;-62
2022/05/15 01:56:48;;;;;;;;;;;;;;;18.72;57.74;101845.75;1029241;28;622;-63
2022/05/15 01:57:40;;;;;;;;;;;;;;;18.71;57.42;101844.03;1029137;28;619;-62
2022/05/15 01:58:30;;;;;;;;;;;;;;;18.72;57.38;101851.16;1029053;28;1890;-62
2022/05/15 01:59:21;;;;;;;;;;;;;;;18.72;57.57;101845.75;1028513;28;1604;-62
2022/05/15 02:00:11;;;;;;;;;;;;;;;18.70;58.41;101850.41;1029080;28;733;-62
2022/05/15 02:01:02;;;;;;;;;;;;;;;18.70;57.79;101852.25;1028650;28;1551;-62
2022/05/15 02:01:52;;;;;;;;;;;;;;;18.70;58.32;101853.13;1028478;28;1590;-62
2022/05/15 02:02:42;;;;;;;;;;;;;;;18.69;57.68;101848.69;1029164;28;654;-62
2022/05/15 02:03:33;;;;;;;;;;;;;;;18.69;58.17;101854.09;1028941;28;1639;-62
2022/05/15 02:04:24;;;;;;;;;;;;;;;18.69;57.52;101842.44;1029111;28;646;-60
2022/05/15 02:05:14;;;;;;;;;;;;;;;18.68;57.47;101855.09;1029262;28;666;-61
2022/05/15 02:06:05;;;;;;;;;;;;;;;18.68;57.58;101846.13;1028881;28;1679;-61
2022/05/15 02:06:55;;;;;;;;;;;;;;;18.68;57.93;101846.13;1028962;28;670;-62
2022/05/15 02:07:47;;;;;;;;;;;;;;;18.67;58.06;101847.09;1027698;28;651;-62
2022/05/15 02:08:37;;;;;;;;;;;;;;;18.67;57.49;101844.41;1028142;28;655;-61
2022/05/15 02:09:28;;;;;;;;;;;;;;;18.66;57.95;101843.56;1027431;28;643;-61
2022/05/15 02:10:18;;;;;;;;;;;;;;;18.67;57.52;101845.28;1028078;28;685;-61
2022/05/15 02:11:09;;;;;;;;;;;;;;;18.66;57.53;101837.28;1027947;28;699;-61
2022/05/15 02:12:00;;;;;;;;;;;;;;;18.66;58.14;101842.69;1027131;28;703;-61
2022/05/15 02:12:50;;;;;;;;;;;;;;;18.66;57.92;101842.69;1027502;28;640;-61
2022/05/15 02:13:41;;;;;;;;;;;;;;;18.65;57.47;101835.56;1027518;28;1671;-61
2022/05/15 02:14:31;;;;;;;;;;;;;;;18.65;57.46;101846.38;1028808;28;1636;-61
2022/05/15 02:15:21;;;;;;;;;;;;;;;18.65;57.64;101838.28;1028671;28;1496;-60
2022/05/15 02:16:12;;;;;;;;;;;;;;;18.65;57.62;101841.84;1028469;28;643;-61
2022/05/15 02:17:02;;;;;;;;;;;;;;;18.64;57.51;101836.56;1029172;28;635;-62
2022/05/15 02:17:53;;;;;;;;;;;;;;;18.65;58.19;101843.69;1029174;28;666;-61
2022/05/15 02:18:43;;;;;;;;;;;;;;;18.65;57.64;101843.69;1028962;28;1963;-62
2022/05/15 02:19:33;;;;;;;;;;;;;;;18.64;57.95;101837.41;1029109;28;643;-61
2022/05/15 02:20:24;;;;;;;;;;;;;;;18.64;58.29;101837.41;1028238;28;1667;-60
2022/05/15 02:21:15;;;;;;;;;;;;;;;18.63;57.21;101834.88;1029079;28;639;-60
2022/05/15 02:22:05;;;;;;;;;;;;;;;18.64;57.15;101836.56;1029096;28;706;-60
2022/05/15 02:22:56;;;;;;;;;;;;;;;18.64;57.75;101836.56;1024556;29;623;-60
2022/05/15 02:23:46;;;;;;;;;;;;;;;18.62;57.58;101831.31;1024478;29;695;-60
2022/05/15 02:24:37;;;;;;;;;;;;;;;18.62;57.58;101838.56;1025717;28;623;-60
2022/05/15 02:25:29;;;;;;;;;;;;;;;18.61;58.07;101837.69;1025123;29;630;-60
2022/05/15 02:26:19;;;;;;;;;;;;;;;18.62;58.10;101827.75;1025312;28;1600;-60
2022/05/15 02:27:09;;;;;;;;;;;;;;;18.61;57.84;101831.44;1028798;28;666;-60
2022/05/15 02:28:00;;;;;;;;;;;;;;;18.62;58.08;101835.84;1025259;28;562;-61
2022/05/15 02:28:50;;;;;;;;;;;;;;;18.63;57.35;101829.47;1025067;29;682;-61
2022/05/15 02:29:41;;;;;;;;;;;;;;;18.61;58.33;101831.44;1024629;29;710;-61
2022/05/15 02:30:31;;;;;;;;;;;;;;;18.60;57.84;101827.88;1024503;29;639;-61
2022/05/15 02:31:21;;;;;;;;;;;;;;;18.60;57.65;101829.72;1025034;29;597;-60
2022/05/15 02:32:12;;;;;;;;;;;;;;;18.59;57.54;101836.09;1025179;29;650;-61
2022/05/15 02:33:02;;;;;;;;;;;;;;;18.59;57.75;101828.00;1025177;29;666;-60
2022/05/15 02:33:53;;;;;;;;;;;;;;;18.58;57.20;101832.50;1027097;28;1648;-61
2022/05/15 02:34:44;;;;;;;;;;;;;;;18.59;57.23;101825.31;1029102;28;633;-61
2022/05/15 02:35:34;;;;;;;;;;;;;;;18.60;58.16;101832.41;1028992;28;694;-61
2022/05/15 02:36:24;;;;;;;;;;;;;;;18.58;57.85;101827.13;1028469;28;1646;-61
2022/05/15 02:37:15;;;;;;;;;;;;;;;18.59;57.50;101836.09;1028999;28;799;-60
2022/05/15 02:38:05;;;;;;;;;;;;;;;18.57;57.71;101827.25;1029135;28;639;-61
2022/05/15 02:38:56;;;;;;;;;;;;;;;18.57;57.34;101835.34;1029095;28;749;-61
2022/05/15 02:39:46;;;;;;;;;;;;;;;18.57;57.90;101825.41;1028896;28;697;-60
2022/05/15 02:40:37;;;;;;;;;;;;;;;18.58;58.09;101826.25;1028103;28;698;-60
2022/05/15 02:41:28;;;;;;;;;;;;;;;18.57;57.75;101827.25;1028108;28;1666;-61
2022/05/15 02:42:21;;;;;;;;;;;;;;;18.57;57.60;101827.25;1028970;28;1702;-62
2022/05/15 02:43:11;;;;;;;;;;;;;;;18.56;57.16;101828.22;1029095;28;678;-61
2022/05/15 02:44:02;;;;;;;;;;;;;;;18.55;58.18;101832.75;1029114;28;703;-61
2022/05/15 02:44:52;;;;;;;;;;;;;;;18.56;57.34;101836.31;1028237;28;1588;-61
2022/05/15 02:45:42;;;;;;;;;;;;;;;18.56;57.66;101828.22;1028996;28;776;-61
2022/05/15 02:46:33;;;;;;;;;;;;;;;18.56;57.46;101830.91;1028420;28;690;-61
2022/05/15 02:47:23;;;;;;;;;;;;;;;18.56;57.43;101828.22;1029107;28;691;-61
2022/05/15 02:51:41;;;;;;;;;;;;;;;18.53;58.01;101829.31;1028451;28;682;-61
2022/05/15 02:52:31;;;;;;;;;;;;;;;18.54;57.21;101830.19;1028561;28;704;-61
2022/05/15 02:53:22;;;;;;;;;;;;;;;18.52;57.79;101837.56;1049789;23;3581;-61
2022/05/15 02:54:13;;;;;;;;;;;;;;;18.51;57.33;101835.84;1024998;29;742;-61
2022/05/15 02:55:03;;;;;;;;;;;;;;;18.51;57.56;101836.69;1024974;29;631;-62
2022/05/15 02:55:54;;;;;;;;;;;;;;;18.50;57.44;101828.72;1024882;29;682;-59
2022/05/15 02:56:44;;;;;;;;;;;;;;;18.50;57.59;101837.69;1024970;29;648;-59
2022/05/15 02:57:35;;;;;;;;;;;;;;;18.49;57.43;101832.41;1028018;28;1680;-60
2022/05/15 02:58:25;;;;;;;;;;;;;;;18.50;57.33;101826.03;1028614;28;1914;-60
2022/05/15 02:59:16;;;;;;;;;;;;;;;18.48;57.96;101831.53;1028196;28;690;-60
2022/05/15 03:00:08;;;;;;;;;;;;;;;18.48;57.26;101827.97;1029209;28;639;-59
2022/05/15 03:00:59;;;;;;;;;;;;;;;18.48;57.56;101820.75;1028958;28;753;-59
2022/05/15 03:01:49;;;;;;;;;;;;;;;18.47;57.17;101816.31;1029045;28;627;-59
2022/05/15 03:02:40;;;;;;;;;;;;;;;18.48;57.05;101819.88;1028936;28;674;-60
2022/05/15 03:03:30;;;;;;;;;;;;;;;18.47;58.11;101829.81;1027818;28;627;-60
2022/05/15 03:04:21;;;;;;;;;;;;;;;18.49;57.34;101829.69;1029012;28;658;-59
2022/05/15 03:05:11;;;;;;;;;;;;;;;18.48;57.39;101831.53;1029041;28;745;-59
2022/05/15 03:06:01;;;;;;;;;;;;;;;18.47;57.36;101815.47;1028744;28;1620;-59
2022/05/15 03:06:52;;;;;;;;;;;;;;;18.48;58.14;101825.28;1028964;28;816;-60
2022/05/15 03:07:43;;;;;;;;;;;;;;;18.48;57.82;101822.59;1027796;28;981;-59
2022/05/15 03:08:33;;;;;;;;;;;;;;;18.47;57.09;101829.81;1025297;28;749;-60
2022/05/15 03:09:24;;;;;;;;;;;;;;;18.46;58.02;101821.84;1024975;29;678;-59
2022/05/15 03:10:14;;;;;;;;;;;;;;;18.46;57.07;101827.25;1025083;29;635;-59
2022/05/15 03:11:05;;;;;;;;;;;;;;;18.45;57.42;101825.56;1025045;29;681;-59
2022/05/15 03:11:55;;;;;;;;;;;;;;;18.44;57.22;101819.31;1025041;29;634;-60
2022/05/15 03:12:46;;;;;;;;;;;;;;;18.44;57.86;101823.84;1024927;29;691;-59
2022/05/15 03:13:36;;;;;;;;;;;;;;;18.43;57.31;101828.38;1024629;29;682;-58
2022/05/15 03:14:27;;;;;;;;;;;;;;;18.44;57.64;101823.84;1021744;28;642;-58
2022/05/15 03:15:19;;;;;;;;;;;;;;;18.42;57.15;101823.97;1025409;28;689;-59
2022/05/15 03:16:09;;;;;;;;;;;;;;;18.43;57.53;101822.13;1026790;28;657;-58
2022/05/15 03:17:00;;;;;;;;;;;;;;;18.42;57.88;101817.72;1026011;28;709;-58
2022/05/15 03:17:50;;;;;;;;;;;;;;;18.43;57.87;101828.38;1026763;28;630;-59
2022/05/15 03:18:41;;;;;;;;;;;;;;;18.42;57.24;101823.97;1025658;28;1915;-59
2022/05/15 03:19:31;;;;;;;;;;;;;;;18.43;57.54;101823.00;1025761;29;626;-58
2022/05/15 03:20:27;;;;;;;;;;;;;;;18.42;57.44;101820.41;1025885;29;678;-59
2022/05/15 03:21:29;;;;;;;;;;;;;;;18.41;57.78;101822.25;1026847;29;816;-58
2022/05/15 03:22:20;;;;;;;;;;;;;;;18.42;57.94;101823.97;1026547;29;741;-59
2022/05/15 03:23:10;;;;;;;;;;;;;;;18.39;56.94;101816.97;1029242;28;1672;-59
2022/05/15 03:24:01;;;;;;;;;;;;;;;18.39;57.02;101824.22;1030272;28;683;-59
2022/05/15 03:24:51;;;;;;;;;;;;;;;18.39;57.19;101826.91;1029882;28;611;-59
2022/05/15 03:25:42;;;;;;;;;;;;;;;18.38;57.15;101819.81;1029622;28;1749;-59
2022/05/15 03:26:33;;;;;;;;;;;;;;;18.38;57.54;101822.50;1029425;28;1667;-60
2022/05/15 03:27:24;;;;;;;;;;;;;;;18.37;56.94;101816.25;1029808;28;682;-60
2022/05/15 03:28:14;;;;;;;;;;;;;;;18.38;57.35;101820.66;1029811;28;639;-59
2022/05/15 03:29:05;;;;;;;;;;;;;;;18.38;58.00;101820.66;1029776;28;647;-59
2022/05/15 03:29:56;;;;;;;;;;;;;;;18.36;57.08;101822.63;1029783;28;678;-59
2022/05/15 03:30:47;;;;;;;;;;;;;;;18.36;57.10;101814.53;1029782;28;710;-59
2022/05/15 03:31:39;;;;;;;;;;;;;;;18.36;56.69;101819.06;1029498;28;1674;-59
2022/05/15 03:32:29;;;;;;;;;;;;;;;18.36;57.42;101810.97;1025894;28;653;-59
2022/05/15 03:33:19;;;;;;;;;;;;;;;18.34;57.78;101808.41;1025725;29;623;-59
2022/05/15 03:34:10;;;;;;;;;;;;;;;18.36;57.27;101808.28;1025802;29;737;-60
2022/05/15 03:35:00;;;;;;;;;;;;;;;18.35;57.70;101806.56;1025851;29;603;-59
2022/05/15 03:35:51;;;;;;;;;;;;;;;18.35;57.28;101810.13;1025633;29;702;-59
2022/05/15 03:36:41;;;;;;;;;;;;;;;18.33;57.19;101801.28;1025780;29;709;-60
2022/05/15 03:37:31;;;;;;;;;;;;;;;18.34;57.23;101807.53;1025758;29;682;-59
2022/05/15 03:38:22;;;;;;;;;;;;;;;18.33;57.46;101801.28;1024340;29;1966;-59
2022/05/15 03:39:13;;;;;;;;;;;;;;;18.33;57.60;101806.69;1024567;29;720;-59
2022/05/15 03:40:04;;;;;;;;;;;;;;;18.34;56.92;101804.84;1025673;29;670;-59
2022/05/15 03:40:54;;;;;;;;;;;;;;;18.34;57.93;101804.84;1025721;29;643;-61
2022/05/15 03:41:45;;;;;;;;;;;;;;;18.33;57.93;101795.88;1025621;29;651;-60
2022/05/15 03:42:35;;;;;;;;;;;;;;;18.33;57.18;101792.31;1026869;28;659;-60
2022/05/15 03:43:26;;;;;;;;;;;;;;;18.32;57.80;101796.00;1029393;28;1701;-60
2022/05/15 03:44:16;;;;;;;;;;;;;;;18.32;56.75;101791.47;1029531;28;647;-60
2022/05/15 03:45:06;;;;;;;;;;;;;;;18.32;57.25;101810.34;1026166;28;1636;-61
2022/05/15 03:45:57;;;;;;;;;;;;;;;18.32;57.30;101796.88;1026633;28;682;-62
2022/05/15 03:46:47;;;;;;;;;;;;;;;18.32;57.72;101804.97;1030148;28;611;-61
2022/05/15 03:47:38;;;;;;;;;;;;;;;18.32;57.95;101810.34;1029617;28;729;-61
2022/05/15 03:48:28;;;;;;;;;;;;;;;18.32;57.39;101804.97;1029554;28;674;-60
2022/05/15 03:49:19;;;;;;;;;;;;;;;18.31;57.28;101797.00;1028856;28;671;-61
2022/05/15 03:50:09;;;;;;;;;;;;;;;18.31;57.31;101799.69;1029839;28;630;-61
2022/05/15 03:51:00;;;;;;;;;;;;;;;18.29;57.08;101799.81;1034057;28;1031;-60
2022/05/15 03:51:50;;;;;;;;;;;;;;;18.29;57.41;101802.50;1027583;28;708;-61
2022/05/15 03:52:40;;;;;;;;;;;;;;;18.30;57.45;101798.81;1025571;29;642;-61
2022/05/15 03:53:31;;;;;;;;;;;;;;;18.30;57.53;101801.53;1025029;29;1116;-60
2022/05/15 03:54:21;;;;;;;;;;;;;;;18.29;57.73;101799.81;1027701;28;1722;-61
2022/05/15 03:55:12;;;;;;;;;;;;;;;18.29;57.01;101799.81;1029704;28;650;-61
2022/05/15 03:56:02;;;;;;;;;;;;;;;18.28;56.89;101802.63;1029557;28;691;-60
2022/05/15 03:56:53;;;;;;;;;;;;;;;18.29;57.49;101802.50;1028569;28;656;-61
2022/05/15 03:57:43;;;;;;;;;;;;;;;18.28;57.20;101803.50;1029644;28;635;-61
2022/05/15 03:58:34;;;;;;;;;;;;;;;18.29;57.26;101796.25;1025933;28;1974;-60
2022/05/15 03:59:25;;;;;;;;;;;;;;;18.28;56.91;101792.69;1026089;28;880;-61
2022/05/15 04:00:15;;;;;;;;;;;;;;;18.28;57.64;101797.25;1026227;28;666;-60
2022/05/15 04:01:06;;;;;;;;;;;;;;;18.27;57.20;101801.78;1025277;29;718;-60
2022/05/15 04:01:56;;;;;;;;;;;;;;;18.27;57.77;101799.06;1021863;29;1533;-60
2022/05/15 04:02:47;;;;;;;;;;;;;;;18.27;57.24;101796.38;1021313;29;686;-60
2022/05/15 04:03:37;;;;;;;;;;;;;;;18.27;57.29;101795.56;1026113;28;741;-60
2022/05/15 04:04:28;;;;;;;;;;;;;;;18.26;56.68;101794.69;1025495;29;690;-60
2022/05/15 04:05:18;;;;;;;;;;;;;;;18.26;57.45;101792.00;1025588;29;639;-60
2022/05/15 04:06:09;;;;;;;;;;;;;;;18.26;57.44;101789.31;1027673;28;1676;-60
2022/05/15 04:06:59;;;;;;;;;;;;;;;18.26;57.38;101797.41;1029643;28;647;-60
2022/05/15 04:07:50;;;;;;;;;;;;;;;18.26;56.60;101792.00;1028762;28;710;-60
2022/05/15 04:08:40;;;;;;;;;;;;;;;18.26;57.41;101783.91;1029258;28;695;-60
2022/05/15 04:09:31;;;;;;;;;;;;;;;18.27;57.83;101787.47;1029656;28;654;-59
2022/05/15 04:10:22;;;;;;;;;;;;;;;18.27;57.36;101784.75;1028695;28;1883;-59
2022/05/15 04:11:12;;;;;;;;;;;;;;;18.26;57.64;101791.13;1029598;28;646;-59
2022/05/15 04:12:03;;;;;;;;;;;;;;;18.25;57.17;101792.13;1029623;28;655;-59
2022/05/15 04:12:53;;;;;;;;;;;;;;;18.26;57.15;101789.31;1029580;28;647;-59
2022/05/15 04:13:43;;;;;;;;;;;;;;;18.27;56.61;101790.16;1025072;29;647;-60
2022/05/15 04:14:34;;;;;;;;;;;;;;;18.26;56.94;101791.13;1029144;28;1754;-59
2022/05/15 04:15:24;;;;;;;;;;;;;;;18.26;56.83;101794.69;1025004;29;663;-59
2022/05/15 04:16:15;;;;;;;;;;;;;;;18.26;56.99;101797.41;1025563;29;651;-59
2022/05/15 04:17:05;;;;;;;;;;;;;;;18.25;57.53;101797.50;1025703;29;702;-59
2022/05/15 04:17:55;;;;;;;;;;;;;;;18.24;56.77;101791.25;1025565;29;644;-59
2022/05/15 04:18:46;;;;;;;;;;;;;;;18.25;57.24;101795.69;1025534;29;1895;-60
2022/05/15 04:19:36;;;;;;;;;;;;;;;18.26;56.80;101793.84;1025466;29;643;-59
2022/05/15 04:20:27;;;;;;;;;;;;;;;18.26;57.56;101793.84;1025555;29;655;-59
2022/05/15 04:21:17;;;;;;;;;;;;;;;18.26;57.72;101792.00;1025518;29;647;-60
2022/05/15 04:22:08;;;;;;;;;;;;;;;18.25;56.90;101792.97;1027089;28;1779;-59
2022/05/15 04:22:58;;;;;;;;;;;;;;;18.26;57.54;101794.69;1029589;28;690;-60
2022/05/15 04:23:49;;;;;;;;;;;;;;;18.26;57.17;101796.53;1030060;28;658;-59
2022/05/15 04:24:39;;;;;;;;;;;;;;;18.25;57.19;101792.13;1029619;28;844;-60
2022/05/15 04:25:29;;;;;;;;;;;;;;;18.26;57.09;101791.13;1029528;28;630;-59
2022/05/15 04:26:20;;;;;;;;;;;;;;;18.25;57.43;101787.59;1029649;28;694;-60
2022/05/15 04:27:10;;;;;;;;;;;;;;;18.25;56.47;101800.22;1029520;28;1715;-60
2022/05/15 04:28:01;;;;;;;;;;;;;;;18.25;57.05;101795.69;1029613;28;647;-59
2022/05/15 04:28:51;;;;;;;;;;;;;;;18.26;56.98;101796.53;1029003;28;556;-59
2022/05/15 04:29:41;;;;;;;;;;;;;;;18.25;57.64;101792.97;1031375;28;718;-59